Data for 06/19/2006

Time Sea-Level Adjusted Pressure Absolute Pressure Temperature Relative Humidity Dew Point   
(mb) (inHg) (mb) (inHg) (C) (F) (%) (C) (F)
00:05 1018 30.06 848 25.04 16.3 61.3 33 0 32
00:10 1018 30.06 848 25.04 16.1 61 33 -0.2 31.6
00:15 1018 30.06 848 25.04 16.1 60.9 33 -0 32
00:20 1018 30.06 847 25.01 15.9 60.7 33 -0.2 31.7
00:25 1018 30.06 847 25.01 15.9 60.6 33 -0.3 31.5
00:30 1018 30.06 847 25.01 15.9 60.5 33 -0.3 31.5
00:35 1018 30.06 847 25.01 15.9 60.5 33 -0.4 31.2
00:40 1018 30.06 847 25.01 15.8 60.4 33 -0.4 31.3
00:45 1018 30.06 847 25.01 15.7 60.3 33 -0.5 31.1
00:50 1018 30.06 847 25.01 15.7 60.3 33 -0.3 31.5
00:55 1018 30.06 847 25.01 15.6 60 33 -0.5 31.1
01:00 1018 30.06 847 25.01 15.6 60.1 33 -0.6 31
01:05 1018 30.06 847 25.01 15.6 60 33 -0.4 31.2
01:10 1018 30.06 847 25.01 15.5 59.9 33 -0.5 31
01:15 1018 30.06 847 25.01 15.4 59.7 33 -0.5 31.1
01:20 1018 30.06 847 25.01 15.3 59.6 34 -0.5 31.1
01:25 1018 30.06 847 25.01 15.3 59.5 34 -0.4 31.2
01:30 1018 30.06 847 25.01 15.1 59.2 34 -0.7 30.8
01:35 1018 30.06 847 25.01 15.1 59.2 34 -0.7 30.8
01:40 1018 30.06 847 25.01 15.1 59.2 34 -0.7 30.7
01:45 1018 30.06 847 25.01 15.1 59.1 34 -0.6 30.8
01:50 1018 30.06 847 25.01 14.9 58.9 34 -0.8 30.6
01:55 1018 30.06 847 25.01 14.9 58.9 34 -0.7 30.7
02:00 1018 30.06 847 25.01 14.8 58.7 34 -0.7 30.7
02:05 1018 30.06 847 25.01 14.8 58.6 34 -0.9 30.3
02:10 1018 30.06 847 25.01 14.8 58.6 33 -1.2 29.8
02:15 1018 30.06 847 25.01 14.8 58.7 33 -1.2 29.9
02:20 1018 30.06 847 25.01 14.8 58.7 33 -1.1 30.1
02:25 1018 30.06 847 25.01 14.7 58.4 34 -1.1 30.1
02:30 1018 30.06 847 25.01 14.7 58.4 33 -1.2 29.8
02:35 1018 30.06 847 25.01 14.8 58.6 33 -1.1 30
02:40 1018 30.06 847 25.01 14.7 58.4 33 -1.2 29.9
02:45 1018 30.06 847 25.01 14.6 58.2 33 -1.2 29.8
02:50 1018 30.06 847 25.01 14.5 58.1 34 -1.1 30
02:55 1018 30.06 847 25.01 14.5 58 34 -1.1 30
03:00 1018 30.06 847 25.01 14.4 57.8 34 -1.3 29.7
03:05 1018 30.06 847 25.01 14.4 57.9 34 -1.2 29.9
03:10 1018 30.06 847 25.01 14.4 57.8 34 -1.4 29.5
03:15 1018 30.06 847 25.01 14.4 57.8 34 -1.4 29.5
03:20 1017 30.03 847 25.01 14.4 57.9 34 -1.3 29.7
03:25 1017 30.03 847 25.01 14.2 57.6 34 -1.3 29.6
03:30 1017 30.03 847 25.01 14.1 57.5 34 -1.2 29.8
03:35 1017 30.03 847 25.01 14 57.3 35 -1.3 29.7
03:40 1017 30.03 847 25.01 13.9 57.1 35 -1.2 29.8
03:45 1017 30.03 846 24.98 13.9 57 35 -1.3 29.6
03:50 1017 30.03 846 24.98 13.8 56.8 35 -1.3 29.7
03:55 1017 30.03 847 25.01 13.7 56.7 36 -1.1 30
04:00 1017 30.03 847 25.01 13.5 56.4 36 -1.1 30.1
04:05 1018 30.06 847 25.01 13.5 56.3 37 -0.9 30.4
04:10 1017 30.03 847 25.01 13.5 56.2 37 -1 30.3
04:15 1017 30.03 846 24.98 13.5 56.2 37 -0.8 30.5
04:20 1017 30.03 847 25.01 13.3 55.9 38 -0.7 30.8
04:25 1017 30.03 846 24.98 13.2 55.7 38 -0.6 30.9
04:30 1017 30.03 846 24.98 13.1 55.6 39 -0.6 31
04:35 1017 30.03 846 24.98 13.1 55.6 38 -0.7 30.8
04:40 1017 30.03 846 24.98 13.2 55.7 38 -0.8 30.6
04:45 1017 30.03 846 24.98 13.2 55.8 39 -0.5 31.1
04:50 1017 30.03 846 24.98 13.2 55.8 38 -0.8 30.6
04:55 1017 30.03 846 24.98 13.3 56 38 -0.6 30.9
05:00 1017 30.03 846 24.98 13.3 56 38 -0.5 31
05:05 1017 30.03 846 24.98 13.4 56.1 38 -0.6 30.9
05:10 1017 30.03 846 24.98 13.4 56.1 38 -0.6 30.9
05:15 1016 30 846 24.98 13.3 56 38 -0.7 30.8
05:20 1017 30.03 846 24.98 13.4 56.1 38 -0.6 30.9
05:25 1016 30 846 24.98 13.4 56 38 -0.7 30.8
05:30 1016 30 845 24.95 13.4 56.1 38 -0.7 30.8
05:35 1016 30 845 24.95 13.3 56 38 -0.5 31.2
05:40 1016 30 845 24.95 13.2 55.8 39 -0.4 31.2
05:45 1016 30 845 24.95 13.2 55.8 39 -0.4 31.2
05:50 1016 30 845 24.95 13.2 55.8 39 -0.5 31
05:55 1016 30 845 24.95 13.3 55.9 39 -0.4 31.2
06:00 1016 30 845 24.95 13.2 55.8 38 -0.7 30.8
06:05 1016 30 845 24.95 13.3 56 38 -0.6 31
06:10 1016 30 845 24.95 13.3 56 38 -0.5 31.2
06:15 1016 30 845 24.95 13.3 56 38 -0.5 31
06:20 1017 30.03 846 24.98 13.3 56 39 -0.4 31.3
06:25 1017 30.03 846 24.98 13.4 56.1 38 -0.5 31
06:30 1017 30.03 846 24.98 13.5 56.4 37 -0.8 30.6
06:35 1017 30.03 846 24.98 13.6 56.4 38 -0.5 31.1
06:40 1017 30.03 847 25.01 13.5 56.3 38 -0.4 31.2
06:45 1017 30.03 847 25.01 13.6 56.4 38 -0.6 30.9
06:50 1017 30.03 847 25.01 13.5 56.2 40 0.3 32.6
06:55 1017 30.03 846 24.98 13.2 55.8 42 0.8 33.4
07:00 1017 30.03 846 24.98 13 55.4 43 0.6 33.1
07:05 1017 30.03 846 24.98 13.1 55.6 42 0.6 33
07:10 1017 30.03 846 24.98 13.1 55.6 42 0.7 33.3
07:15 1017 30.03 846 24.98 13.3 56 39 -0.3 31.5
07:20 1017 30.03 846 24.98 13.9 57 39 0.1 32.3
07:25 1017 30.03 846 24.98 14.2 57.5 39 0.5 32.9
07:30 1017 30.03 846 24.98 14.3 57.7 39 0.7 33.3
07:35 1017 30.03 846 24.98 14.5 58.1 39 0.7 33.2
07:40 1017 30.03 846 24.98 14.9 58.9 38 0.7 33.3
07:45 1017 30.03 846 24.98 14.9 58.8 37 0.5 32.9
07:50 1017 30.03 846 24.98 14.6 58.3 37 0.1 32.2
07:55 1017 30.03 846 24.98 14.5 58.1 39 0.6 33.1
08:00 1016 30 846 24.98 14.3 57.8 37 0 32.1
08:05 1017 30.03 846 24.98 14.4 57.9 38 0.3 32.6
08:10 1017 30.03 846 24.98 14.6 58.4 38 0.6 33
08:15 1017 30.03 846 24.98 14.9 58.8 38 0.6 33.1
08:20 1016 30 846 24.98 14.9 58.9 38 0.6 33.2
08:25 1016 30 846 24.98 14.8 58.6 38 0.7 33.2
08:30 1016 30 845 24.95 14.6 58.3 38 0.7 33.2
08:35 1016 30 845 24.95 14.5 58.2 39 0.8 33.5
08:40 1016 30 845 24.95 14.5 58 39 0.8 33.5
08:45 1016 30 845 24.95 14.5 58.1 39 0.9 33.6
08:50 1016 30 845 24.95 14.5 58 40 1 33.8
08:55 1016 30 845 24.95 14.7 58.4 37 0.1 32.2
09:00 1016 30 845 24.95 15 59 35 -0.3 31.4
09:05 1016 30 845 24.95 15.5 60 34 -0.3 31.5
09:10 1016 30 845 24.95 16 60.8 35 0.5 33
09:15 1016 30 845 24.95 16.2 61.1 36 1.2 34.2
09:20 1016 30 845 24.95 16.4 61.6 32 -0.2 31.7
09:25 1016 30 845 24.95 16.8 62.2 31 -0.4 31.3
09:30 1016 30 845 24.95 17.5 63.4 29 -0.8 30.5
09:35 1016 30 845 24.95 17.9 64.2 28 -0.9 30.4
09:40 1016 30 845 24.95 18 64.3 28 -0.6 30.9
09:45 1016 30 845 24.95 17.9 64.2 28 -0.5 31.1
09:50 1016 30 845 24.95 18.4 65.1 29 0.3 32.5
09:55 1016 30 845 24.95 18.3 65 35 2.9 37.2
10:00 1016 30 845 24.95 17.4 63.3 40 3.8 38.8
10:05 1016 30 845 24.95 16.5 61.7 43 4 39.1
10:10 1016 30 845 24.95 15.8 60.5 46 4.5 40
10:15 1016 30 845 24.95 15.5 59.9 48 4.7 40.5
10:20 1016 30 845 24.95 15.5 59.9 49 5 41.1
10:25 1016 30 846 24.98 15.3 59.5 48 4.4 40
10:30 1016 30 846 24.98 16 60.8 48 5 41.1
10:35 1016 30 846 24.98 16.2 61.2 47 5 41.1
10:40 1016 30 846 24.98 16.4 61.5 51 6.4 43.4
10:45 1016 30 846 24.98 16.5 61.6 47 5.4 41.7
10:50 1017 30.03 846 24.98 17.4 63.2 47 6.1 43
10:55 1017 30.03 846 24.98 17.9 64.2 47 6.5 43.8
11:00 1017 30.03 846 24.98 18.4 65.1 43 5.8 42.4
11:05 1017 30.03 846 24.98 18.4 65.1 42 5.4 41.7
11:10 1017 30.03 846 24.98 19 66.1 38 4.3 39.8
11:15 1017 30.03 846 24.98 19.1 66.4 37 4.4 39.9
11:20 1017 30.03 846 24.98 19 66.2 39 5.1 41.1
11:25 1017 30.03 846 24.98 19.1 66.4 39 5.1 41.1
11:30 1017 30.03 846 24.98 19.5 67 39 5.2 41.3
11:35 1017 30.03 846 24.98 19.5 67 38 5 41
11:40 1017 30.03 846 24.98 19.3 66.7 38 4.8 40.7
11:45 1017 30.03 846 24.98 19.6 67.2 35 3.7 38.7
11:50 1017 30.03 846 24.98 19.7 67.4 33 3.3 38
11:55 1017 30.03 846 24.98 19.2 66.6 35 3.7 38.7
12:00 1017 30.03 846 24.98 19.4 66.8 38 4.8 40.6
12:05 1017 30.03 846 24.98 19.5 67 38 5.1 41.2
12:10 1017 30.03 846 24.98 19.4 67 34 3.4 38.2
12:15 1017 30.03 846 24.98 19.5 67.1 35 3.8 38.9
12:20 1017 30.03 846 24.98 19.7 67.4 36 4.3 39.7
12:25 1017 30.03 846 24.98 19.7 67.4 36 4.4 39.9
12:30 1017 30.03 846 24.98 19.9 67.7 36 4.5 40.1
12:35 1017 30.03 846 24.98 20 68 36 4.6 40.2
12:40 1017 30.03 846 24.98 20.3 68.5 36 4.9 40.8
12:45 1017 30.03 846 24.98 20 68 38 5.5 41.8
12:50 1017 30.03 846 24.98 19.7 67.5 38 5.1 41.1
12:55 1017 30.03 846 24.98 20.2 68.4 35 4.3 39.8
13:00 1017 30.03 846 24.98 20.4 68.8 36 5.1 41.2
13:05 1017 30.03 846 24.98 20.9 69.6 34 4.7 40.5
13:10 1017 30.03 846 24.98 20.6 69 35 4.8 40.7
13:15 1017 30.03 846 24.98 20.5 69 38 6 42.9
13:20 1017 30.03 846 24.98 20.4 68.8 39 6 42.8
13:25 1017 30.03 846 24.98 20.4 68.7 39 6.2 43.1
13:30 1017 30.03 846 24.98 20.2 68.4 39 6 42.8
13:35 1017 30.03 846 24.98 19.6 67.3 41 6 42.7
13:40 1017 30.03 846 24.98 19.9 67.7 41 6.3 43.4
13:45 1017 30.03 846 24.98 20.1 68.1 41 6.7 44
13:50 1017 30.03 846 24.98 20.1 68.2 41 6.4 43.6
13:55 1017 30.03 846 24.98 19.4 67 43 6.6 43.8
14:00 1017 30.03 846 24.98 19.2 66.5 42 6.2 43.1
14:05 1017 30.03 847 25.01 19 66.1 44 6.6 43.8
14:10 1017 30.03 847 25.01 18.4 65.2 43 5.6 42.2
14:15 1018 30.06 847 25.01 18.2 64.8 44 5.9 42.6
14:20 1018 30.06 847 25.01 18 64.3 44 5.5 42
14:25 1018 30.06 847 25.01 17.8 64 46 6.1 43
14:30 1018 30.06 847 25.01 17.6 63.7 47 6.4 43.5
14:35 1018 30.06 847 25.01 17.6 63.6 48 6.7 44
14:40 1018 30.06 847 25.01 17.3 63.2 52 7.5 45.4
14:45 1018 30.06 847 25.01 16.8 62.3 55 7.9 46.3
14:50 1018 30.06 847 25.01 16.6 61.9 59 8.6 47.4
14:55 1018 30.06 847 25.01 16.4 61.4 60 8.7 47.7
15:00 1018 30.06 847 25.01 16.2 61.1 61 8.8 47.9
15:05 1018 30.06 847 25.01 15.9 60.7 62 8.7 47.7
15:10 1018 30.06 847 25.01 15.9 60.6 63 9 48.3
15:15 1018 30.06 847 25.01 16 60.7 64 9.2 48.6
15:20 1018 30.06 847 25.01 16 60.9 63 9 48.2
15:25 1018 30.06 847 25.01 16.1 60.9 61 8.5 47.4
15:30 1018 30.06 847 25.01 16.2 61.1 59 8.3 46.9
15:35 1018 30.06 847 25.01 16.1 61 58 7.9 46.2
15:40 1018 30.06 847 25.01 16.1 60.9 61 8.5 47.3
15:45 1018 30.06 847 25.01 15.9 60.5 60 8.2 46.8
15:50 1018 30.06 848 25.04 15.7 60.3 62 8.5 47.3
15:55 1018 30.06 847 25.01 15.5 59.9 62 8.3 46.9
16:00 1019 30.09 848 25.04 15.3 59.6 63 8.5 47.3
16:05 1019 30.09 848 25.04 15.1 59.2 66 8.9 48
16:10 1019 30.09 848 25.04 14.7 58.5 72 9.8 49.7
16:15 1019 30.09 848 25.04 14.3 57.8 72 9.3 48.8
16:20 1019 30.09 848 25.04 13.8 56.9 71 8.8 47.8
16:25 1019 30.09 849 25.07 13.4 56.1 73 8.7 47.6
16:30 1020 30.12 849 25.07 13 55.4 72 8.1 46.5
16:35 1020 30.12 849 25.07 12.8 55.1 73 8.2 46.8
16:40 1019 30.09 848 25.04 12.6 54.7 81 9.5 49
16:45 1019 30.09 848 25.04 12.1 53.8 84 9.5 49
16:50 1019 30.09 849 25.07 12.2 54 84 9.6 49.3
16:55 1019 30.09 849 25.07 12.6 54.7 81 9.5 49
17:00 1019 30.09 849 25.07 12.9 55.2 79 9.3 48.8
17:05 1019 30.09 848 25.04 12.8 55 80 9.5 49
17:10 1019 30.09 848 25.04 12.2 53.9 81 9 48.2
17:15 1019 30.09 848 25.04 11.8 53.2 86 9.5 49
17:20 1019 30.09 848 25.04 11.6 52.9 89 9.8 49.7
17:25 1018 30.06 848 25.04 11.7 53.1 88 9.9 49.8
17:30 1018 30.06 847 25.01 11.9 53.4 87 9.9 49.8
17:35 1018 30.06 847 25.01 11.9 53.5 87 9.9 49.9
17:40 1018 30.06 847 25.01 12 53.6 87 10 49.9
17:45 1018 30.06 848 25.04 12.1 53.8 84 9.6 49.2
17:50 1018 30.06 848 25.04 12.2 54 85 9.7 49.5
17:55 1019 30.09 848 25.04 12.3 54.1 82 9.3 48.7
18:00 1018 30.06 848 25.04 12.2 54 80 8.9 48
18:05 1018 30.06 847 25.01 12.3 54.2 80 8.9 48.1
18:10 1018 30.06 847 25.01 12.3 54.2 78 8.7 47.7
18:15 1018 30.06 847 25.01 12.5 54.5 79 9 48.3
18:20 1018 30.06 847 25.01 13 55.3 77 9.1 48.3
18:25 1018 30.06 847 25.01 13.1 55.6 77 9.2 48.5
18:30 1018 30.06 847 25.01 13.3 56 77 9.3 48.8
18:35 1018 30.06 847 25.01 13.7 56.6 75 9.3 48.8
18:40 1018 30.06 847 25.01 13.7 56.6 74 9.1 48.5
18:45 1018 30.06 847 25.01 13.8 56.8 74 9.3 48.7
18:50 1018 30.06 847 25.01 13.9 56.9 77 9.9 49.8
18:55 1018 30.06 847 25.01 14.2 57.6 75 9.9 49.7
19:00 1018 30.06 847 25.01 14.4 57.9 73 9.6 49.3
19:05 1018 30.06 847 25.01 14.4 57.8 72 9.4 48.8
19:10 1018 30.06 847 25.01 14.3 57.7 72 9.3 48.8
19:15 1018 30.06 847 25.01 14.2 57.5 73 9.5 49.1
19:20 1018 30.06 847 25.01 14.2 57.6 74 9.6 49.3
19:25 1018 30.06 847 25.01 14.1 57.4 75 9.8 49.6
19:30 1018 30.06 847 25.01 14 57.3 76 9.9 49.9
19:35 1018 30.06 847 25.01 14.2 57.5 76 10.1 50.1
19:40 1018 30.06 847 25.01 14.2 57.6 75 9.8 49.7
19:45 1018 30.06 847 25.01 14.4 57.8 74 9.8 49.6
19:50 1018 30.06 847 25.01 14.3 57.7 74 9.7 49.4
19:55 1018 30.06 847 25.01 14.2 57.6 73 9.5 49.2
20:00 1018 30.06 847 25.01 14.4 57.8 72 9.4 48.8
20:05 1018 30.06 847 25.01 14.4 57.9 70 9 48.2
20:10 1018 30.06 847 25.01 14.4 57.8 70 9 48.1
20:15 1018 30.06 847 25.01 14.2 57.6 71 9.1 48.4
20:20 1018 30.06 847 25.01 14.1 57.4 71 9 48.3
20:25 1018 30.06 847 25.01 14 57.3 72 9.2 48.6
20:30 1018 30.06 847 25.01 13.9 57.1 72 9 48.2
20:35 1018 30.06 847 25.01 13.9 57 72 9 48.2
20:40 1018 30.06 847 25.01 13.9 56.9 73 9.2 48.5
20:45 1018 30.06 847 25.01 13.7 56.7 73 9.1 48.3
20:50 1018 30.06 847 25.01 13.5 56.3 73 8.9 48
20:55 1018 30.06 847 25.01 13.4 56 73 8.7 47.7
21:00 1018 30.06 847 25.01 13.2 55.8 75 9 48.2
21:05 1018 30.06 847 25.01 13 55.4 74 8.5 47.3
21:10 1018 30.06 847 25.01 12.9 55.2 74 8.3 47
21:15 1018 30.06 847 25.01 12.9 55.2 74 8.3 46.9
21:20 1018 30.06 847 25.01 12.7 54.9 75 8.4 47.1
21:25 1018 30.06 847 25.01 12.5 54.4 76 8.3 46.9
21:30 1018 30.06 847 25.01 12.3 54.2 76 8.3 47
21:35 1018 30.06 847 25.01 12.2 53.9 78 8.4 47.1
21:40 1018 30.06 847 25.01 12 53.6 78 8.2 46.8
21:45 1018 30.06 847 25.01 12 53.5 78 8.2 46.7
21:50 1018 30.06 847 25.01 12 53.6 78 8.3 46.9
21:55 1018 30.06 847 25.01 11.7 53 79 8.2 46.8
22:00 1018 30.06 847 25.01 11.5 52.8 78 7.9 46.3
22:05 1018 30.06 847 25.01 11.7 53 78 8 46.4
22:10 1018 30.06 848 25.04 11.7 53.1 79 8.2 46.8
22:15 1018 30.06 848 25.04 11.5 52.8 80 8.2 46.8
22:20 1018 30.06 848 25.04 11.4 52.5 80 8.1 46.6
22:25 1018 30.06 848 25.04 11.2 52.1 83 8.4 47.1
22:30 1018 30.06 848 25.04 10.9 51.5 84 8.2 46.8
22:35 1019 30.09 848 25.04 10.9 51.5 83 8.1 46.6
22:40 1019 30.09 848 25.04 11 51.7 81 7.9 46.2
22:45 1019 30.09 848 25.04 11 51.8 82 8 46.4
22:50 1019 30.09 848 25.04 10.9 51.6 82 8 46.4
22:55 1019 30.09 848 25.04 10.8 51.4 83 8 46.4
23:00 1019 30.09 848 25.04 10.7 51.2 82 7.8 46.1
23:05 1019 30.09 848 25.04 10.8 51.4 81 7.7 45.9
23:10 1019 30.09 848 25.04 10.8 51.4 81 7.8 46
23:15 1019 30.09 848 25.04 10.8 51.4 81 7.7 45.9
23:20 1019 30.09 848 25.04 10.6 51.2 82 7.7 45.8
23:25 1019 30.09 848 25.04 10.5 50.9 82 7.6 45.7
23:30 1019 30.09 848 25.04 10.5 50.9 82 7.6 45.6
23:35 1019 30.09 848 25.04 10.4 50.7 82 7.5 45.4
23:40 1019 30.09 848 25.04 10.2 50.4 83 7.5 45.5
23:45 1019 30.09 848 25.04 10.2 50.4 83 7.4 45.4
23:50 1019 30.09 848 25.04 10.1 50.1 83 7.3 45.1
23:55 1019 30.09 848 25.04 10 50 84 7.5 45.4
24:00 1019 30.09 848 25.04 9.8 49.7 85 7.4 45.3